sensor_id;sensor_type;location;lat;lon;timestamp;P1;durP1;ratioP1;P2;durP2;ratioP2
66585;SDS011;53444;45.822;16.092;2023-08-06T00:00:46;1.05;;;0.50;;
66585;SDS011;53444;45.822;16.092;2023-08-06T00:03:12;3.58;;;0.70;;
66585;SDS011;53444;45.822;16.092;2023-08-06T00:05:41;0.93;;;0.57;;
66585;SDS011;53444;45.822;16.092;2023-08-06T00:08:08;1.52;;;0.70;;
66585;SDS011;53444;45.822;16.092;2023-08-06T00:10:34;0.82;;;0.57;;
66585;SDS011;53444;45.822;16.092;2023-08-06T00:13:02;0.40;;;0.40;;
66585;SDS011;53444;45.822;16.092;2023-08-06T00:15:29;0.60;;;0.40;;
66585;SDS011;53444;45.822;16.092;2023-08-06T00:17:55;0.98;;;0.80;;
66585;SDS011;53444;45.822;16.092;2023-08-06T00:20:22;0.65;;;0.50;;
66585;SDS011;53444;45.822;16.092;2023-08-06T00:22:48;1.45;;;0.60;;
66585;SDS011;53444;45.822;16.092;2023-08-06T00:25:15;0.82;;;0.50;;
66585;SDS011;53444;45.822;16.092;2023-08-06T00:27:42;0.80;;;0.40;;
66585;SDS011;53444;45.822;16.092;2023-08-06T00:30:10;0.70;;;0.68;;
66585;SDS011;53444;45.822;16.092;2023-08-06T00:32:37;1.40;;;0.57;;
66585;SDS011;53444;45.822;16.092;2023-08-06T00:35:04;0.77;;;0.70;;
66585;SDS011;53444;45.822;16.092;2023-08-06T00:37:31;0.65;;;0.52;;
66585;SDS011;53444;45.822;16.092;2023-08-06T00:39:57;2.53;;;0.93;;
66585;SDS011;53444;45.822;16.092;2023-08-06T00:42:24;0.60;;;0.50;;
66585;SDS011;53444;45.822;16.092;2023-08-06T00:44:51;0.60;;;0.40;;
66585;SDS011;53444;45.822;16.092;2023-08-06T00:47:19;0.70;;;0.50;;
66585;SDS011;53444;45.822;16.092;2023-08-06T00:49:45;0.73;;;0.52;;
66585;SDS011;53444;45.822;16.092;2023-08-06T00:52:12;0.70;;;0.60;;
66585;SDS011;53444;45.822;16.092;2023-08-06T00:54:39;0.73;;;0.60;;
66585;SDS011;53444;45.822;16.092;2023-08-06T00:57:06;1.08;;;0.77;;
66585;SDS011;53444;45.822;16.092;2023-08-06T00:59:34;0.60;;;0.60;;
66585;SDS011;53444;45.822;16.092;2023-08-06T01:02:01;0.65;;;0.50;;
66585;SDS011;53444;45.822;16.092;2023-08-06T01:04:29;1.02;;;0.30;;
66585;SDS011;53444;45.822;16.092;2023-08-06T01:06:59;1.00;;;0.60;;
66585;SDS011;53444;45.822;16.092;2023-08-06T01:09:35;0.85;;;0.80;;
66585;SDS011;53444;45.822;16.092;2023-08-06T01:12:11;0.73;;;0.50;;
66585;SDS011;53444;45.822;16.092;2023-08-06T01:14:48;1.00;;;0.50;;
66585;SDS011;53444;45.822;16.092;2023-08-06T01:17:20;0.70;;;0.50;;
66585;SDS011;53444;45.822;16.092;2023-08-06T01:19:48;0.80;;;0.40;;
66585;SDS011;53444;45.822;16.092;2023-08-06T01:22:16;0.80;;;0.47;;
66585;SDS011;53444;45.822;16.092;2023-08-06T01:24:42;0.70;;;0.40;;
66585;SDS011;53444;45.822;16.092;2023-08-06T01:27:14;1.10;;;0.55;;
66585;SDS011;53444;45.822;16.092;2023-08-06T01:29:52;0.80;;;0.50;;
66585;SDS011;53444;45.822;16.092;2023-08-06T01:32:26;2.40;;;0.50;;
66585;SDS011;53444;45.822;16.092;2023-08-06T01:34:53;0.60;;;0.50;;
66585;SDS011;53444;45.822;16.092;2023-08-06T01:37:22;0.80;;;0.50;;
66585;SDS011;53444;45.822;16.092;2023-08-06T01:39:49;0.93;;;0.50;;
66585;SDS011;53444;45.822;16.092;2023-08-06T01:42:16;0.80;;;0.80;;
66585;SDS011;53444;45.822;16.092;2023-08-06T01:44:43;0.70;;;0.50;;
66585;SDS011;53444;45.822;16.092;2023-08-06T01:47:09;0.68;;;0.40;;
66585;SDS011;53444;45.822;16.092;2023-08-06T01:49:36;0.80;;;0.40;;
66585;SDS011;53444;45.822;16.092;2023-08-06T01:52:03;4.10;;;0.80;;
66585;SDS011;53444;45.822;16.092;2023-08-06T01:54:31;1.52;;;0.50;;
66585;SDS011;53444;45.822;16.092;2023-08-06T01:56:57;3.33;;;0.50;;
66585;SDS011;53444;45.822;16.092;2023-08-06T01:59:24;2.83;;;0.70;;
66585;SDS011;53444;45.822;16.092;2023-08-06T02:01:51;1.55;;;0.55;;
66585;SDS011;53444;45.822;16.092;2023-08-06T02:04:18;1.00;;;0.55;;
66585;SDS011;53444;45.822;16.092;2023-08-06T02:06:44;0.95;;;0.40;;
66585;SDS011;53444;45.822;16.092;2023-08-06T02:09:11;1.23;;;0.65;;
66585;SDS011;53444;45.822;16.092;2023-08-06T02:11:39;1.10;;;0.50;;
66585;SDS011;53444;45.822;16.092;2023-08-06T02:14:05;1.08;;;0.60;;
66585;SDS011;53444;45.822;16.092;2023-08-06T02:16:32;1.25;;;0.65;;
66585;SDS011;53444;45.822;16.092;2023-08-06T02:18:58;1.23;;;0.60;;
66585;SDS011;53444;45.822;16.092;2023-08-06T02:21:25;1.05;;;0.60;;
66585;SDS011;53444;45.822;16.092;2023-08-06T02:23:51;2.65;;;0.70;;
66585;SDS011;53444;45.822;16.092;2023-08-06T02:26:18;1.25;;;0.65;;
66585;SDS011;53444;45.822;16.092;2023-08-06T02:28:46;1.02;;;0.60;;
66585;SDS011;53444;45.822;16.092;2023-08-06T02:31:13;0.98;;;0.70;;
66585;SDS011;53444;45.822;16.092;2023-08-06T02:33:39;1.85;;;0.50;;
66585;SDS011;53444;45.822;16.092;2023-08-06T02:36:06;2.28;;;0.60;;
66585;SDS011;53444;45.822;16.092;2023-08-06T02:38:32;1.35;;;0.65;;
66585;SDS011;53444;45.822;16.092;2023-08-06T02:41:01;1.67;;;1.00;;
66585;SDS011;53444;45.822;16.092;2023-08-06T02:43:28;3.05;;;0.93;;
66585;SDS011;53444;45.822;16.092;2023-08-06T02:45:57;1.48;;;0.73;;
66585;SDS011;53444;45.822;16.092;2023-08-06T02:48:24;4.10;;;0.60;;
66585;SDS011;53444;45.822;16.092;2023-08-06T02:50:51;1.23;;;0.60;;
66585;SDS011;53444;45.822;16.092;2023-08-06T02:53:17;1.63;;;0.55;;
66585;SDS011;53444;45.822;16.092;2023-08-06T02:55:45;1.33;;;0.50;;
66585;SDS011;53444;45.822;16.092;2023-08-06T02:58:12;0.50;;;0.30;;
66585;SDS011;53444;45.822;16.092;2023-08-06T03:00:39;1.20;;;0.50;;
66585;SDS011;53444;45.822;16.092;2023-08-06T03:03:07;1.08;;;0.43;;
66585;SDS011;53444;45.822;16.092;2023-08-06T03:05:34;0.65;;;0.47;;
66585;SDS011;53444;45.822;16.092;2023-08-06T03:08:00;0.70;;;0.50;;
66585;SDS011;53444;45.822;16.092;2023-08-06T03:10:27;1.55;;;0.32;;
66585;SDS011;53444;45.822;16.092;2023-08-06T03:12:54;2.10;;;0.60;;
66585;SDS011;53444;45.822;16.092;2023-08-06T03:15:20;0.45;;;0.30;;
66585;SDS011;53444;45.822;16.092;2023-08-06T03:17:47;0.73;;;0.55;;
66585;SDS011;53444;45.822;16.092;2023-08-06T03:20:15;0.82;;;0.45;;
66585;SDS011;53444;45.822;16.092;2023-08-06T03:22:41;0.80;;;0.55;;
66585;SDS011;53444;45.822;16.092;2023-08-06T03:25:08;1.67;;;0.47;;
66585;SDS011;53444;45.822;16.092;2023-08-06T03:27:34;0.70;;;0.30;;
66585;SDS011;53444;45.822;16.092;2023-08-06T03:30:01;1.70;;;0.40;;
66585;SDS011;53444;45.822;16.092;2023-08-06T03:32:28;0.50;;;0.30;;
66585;SDS011;53444;45.822;16.092;2023-08-06T03:34:54;0.52;;;0.40;;
66585;SDS011;53444;45.822;16.092;2023-08-06T03:37:22;1.40;;;0.40;;
66585;SDS011;53444;45.822;16.092;2023-08-06T03:39:49;0.70;;;0.40;;
66585;SDS011;53444;45.822;16.092;2023-08-06T03:42:15;1.95;;;0.40;;
66585;SDS011;53444;45.822;16.092;2023-08-06T03:44:42;1.52;;;0.47;;
66585;SDS011;53444;45.822;16.092;2023-08-06T03:47:09;0.60;;;0.40;;
66585;SDS011;53444;45.822;16.092;2023-08-06T03:49:35;0.80;;;0.50;;
66585;SDS011;53444;45.822;16.092;2023-08-06T03:52:02;1.75;;;0.60;;
66585;SDS011;53444;45.822;16.092;2023-08-06T03:54:30;0.85;;;0.60;;
66585;SDS011;53444;45.822;16.092;2023-08-06T03:56:57;1.55;;;0.40;;
66585;SDS011;53444;45.822;16.092;2023-08-06T03:59:23;0.90;;;0.60;;
66585;SDS011;53444;45.822;16.092;2023-08-06T04:01:50;0.80;;;0.40;;
66585;SDS011;53444;45.822;16.092;2023-08-06T04:04:17;0.60;;;0.40;;
66585;SDS011;53444;45.822;16.092;2023-08-06T04:06:43;3.63;;;0.50;;
66585;SDS011;53444;45.822;16.092;2023-08-06T04:09:10;0.80;;;0.40;;
66585;SDS011;53444;45.822;16.092;2023-08-06T04:11:38;1.35;;;0.60;;
66585;SDS011;53444;45.822;16.092;2023-08-06T04:14:04;0.52;;;0.40;;
66585;SDS011;53444;45.822;16.092;2023-08-06T04:16:31;3.70;;;0.55;;
66585;SDS011;53444;45.822;16.092;2023-08-06T04:18:58;1.23;;;0.30;;
66585;SDS011;53444;45.822;16.092;2023-08-06T04:21:24;0.80;;;0.50;;
66585;SDS011;53444;45.822;16.092;2023-08-06T04:23:51;2.95;;;1.20;;
66585;SDS011;53444;45.822;16.092;2023-08-06T04:26:17;3.90;;;1.67;;
66585;SDS011;53444;45.822;16.092;2023-08-06T04:28:45;2.92;;;1.40;;
66585;SDS011;53444;45.822;16.092;2023-08-06T04:31:12;1.98;;;0.80;;
66585;SDS011;53444;45.822;16.092;2023-08-06T04:33:38;1.15;;;0.70;;
66585;SDS011;53444;45.822;16.092;2023-08-06T04:36:05;2.97;;;0.90;;
66585;SDS011;53444;45.822;16.092;2023-08-06T04:38:32;3.03;;;1.02;;
66585;SDS011;53444;45.822;16.092;2023-08-06T04:40:59;1.63;;;0.70;;
66585;SDS011;53444;45.822;16.092;2023-08-06T04:43:25;1.08;;;0.60;;
66585;SDS011;53444;45.822;16.092;2023-08-06T04:45:54;1.30;;;0.50;;
66585;SDS011;53444;45.822;16.092;2023-08-06T04:48:21;1.55;;;0.38;;
66585;SDS011;53444;45.822;16.092;2023-08-06T04:50:48;1.67;;;0.65;;
66585;SDS011;53444;45.822;16.092;2023-08-06T04:53:16;1.70;;;0.80;;
66585;SDS011;53444;45.822;16.092;2023-08-06T04:55:43;2.65;;;0.80;;
66585;SDS011;53444;45.822;16.092;2023-08-06T04:58:09;0.82;;;0.45;;
66585;SDS011;53444;45.822;16.092;2023-08-06T05:00:36;1.42;;;0.70;;
66585;SDS011;53444;45.822;16.092;2023-08-06T05:03:05;0.77;;;0.57;;
66585;SDS011;53444;45.822;16.092;2023-08-06T05:05:32;1.42;;;0.70;;
66585;SDS011;53444;45.822;16.092;2023-08-06T05:07:58;0.70;;;0.50;;
66585;SDS011;53444;45.822;16.092;2023-08-06T05:10:25;0.70;;;0.40;;
66585;SDS011;53444;45.822;16.092;2023-08-06T05:12:52;0.60;;;0.32;;
66585;SDS011;53444;45.822;16.092;2023-08-06T05:15:18;0.85;;;0.50;;
66585;SDS011;53444;45.822;16.092;2023-08-06T05:17:46;0.93;;;0.50;;
66585;SDS011;53444;45.822;16.092;2023-08-06T05:20:14;0.70;;;0.50;;
66585;SDS011;53444;45.822;16.092;2023-08-06T05:22:41;1.00;;;0.60;;
66585;SDS011;53444;45.822;16.092;2023-08-06T05:25:07;0.70;;;0.47;;
66585;SDS011;53444;45.822;16.092;2023-08-06T05:27:34;1.80;;;0.70;;
66585;SDS011;53444;45.822;16.092;2023-08-06T05:30:01;1.23;;;0.40;;
66585;SDS011;53444;45.822;16.092;2023-08-06T05:32:27;1.08;;;0.50;;
66585;SDS011;53444;45.822;16.092;2023-08-06T05:34:54;0.70;;;0.40;;
66585;SDS011;53444;45.822;16.092;2023-08-06T05:37:22;2.10;;;0.30;;
66585;SDS011;53444;45.822;16.092;2023-08-06T05:39:49;0.50;;;0.40;;
66585;SDS011;53444;45.822;16.092;2023-08-06T05:42:15;0.65;;;0.40;;
66585;SDS011;53444;45.822;16.092;2023-08-06T05:44:42;0.40;;;0.30;;
66585;SDS011;53444;45.822;16.092;2023-08-06T05:47:09;0.60;;;0.30;;
66585;SDS011;53444;45.822;16.092;2023-08-06T05:49:36;0.50;;;0.30;;
66585;SDS011;53444;45.822;16.092;2023-08-06T05:52:03;0.60;;;0.40;;
66585;SDS011;53444;45.822;16.092;2023-08-06T05:54:34;0.55;;;0.30;;
66585;SDS011;53444;45.822;16.092;2023-08-06T05:57:01;0.70;;;0.40;;
66585;SDS011;53444;45.822;16.092;2023-08-06T05:59:28;1.45;;;0.40;;
66585;SDS011;53444;45.822;16.092;2023-08-06T06:01:55;0.50;;;0.30;;
66585;SDS011;53444;45.822;16.092;2023-08-06T06:04:21;0.57;;;0.25;;
66585;SDS011;53444;45.822;16.092;2023-08-06T06:06:48;1.67;;;0.22;;
66585;SDS011;53444;45.822;16.092;2023-08-06T06:09:15;0.50;;;0.30;;
66585;SDS011;53444;45.822;16.092;2023-08-06T06:11:43;0.90;;;0.50;;
66585;SDS011;53444;45.822;16.092;2023-08-06T06:14:10;0.60;;;0.50;;
66585;SDS011;53444;45.822;16.092;2023-08-06T06:16:39;0.60;;;0.30;;
66585;SDS011;53444;45.822;16.092;2023-08-06T06:19:06;0.60;;;0.30;;
66585;SDS011;53444;45.822;16.092;2023-08-06T06:21:36;1.75;;;0.30;;
66585;SDS011;53444;45.822;16.092;2023-08-06T06:24:03;0.50;;;0.32;;
66585;SDS011;53444;45.822;16.092;2023-08-06T06:26:30;0.63;;;0.32;;
66585;SDS011;53444;45.822;16.092;2023-08-06T06:28:58;1.58;;;0.60;;
66585;SDS011;53444;45.822;16.092;2023-08-06T06:31:25;1.50;;;1.00;;
66585;SDS011;53444;45.822;16.092;2023-08-06T06:33:52;2.15;;;0.40;;
66585;SDS011;53444;45.822;16.092;2023-08-06T06:36:19;0.93;;;0.40;;
66585;SDS011;53444;45.822;16.092;2023-08-06T06:38:46;1.30;;;0.80;;
66585;SDS011;53444;45.822;16.092;2023-08-06T06:41:14;1.35;;;0.73;;
66585;SDS011;53444;45.822;16.092;2023-08-06T06:43:41;3.22;;;1.83;;
66585;SDS011;53444;45.822;16.092;2023-08-06T06:46:09;3.22;;;1.85;;
66585;SDS011;53444;45.822;16.092;2023-08-06T06:48:36;2.53;;;1.00;;
66585;SDS011;53444;45.822;16.092;2023-08-06T06:51:03;0.70;;;0.40;;
66585;SDS011;53444;45.822;16.092;2023-08-06T06:53:29;5.60;;;0.55;;
66585;SDS011;53444;45.822;16.092;2023-08-06T06:55:56;0.70;;;0.50;;
66585;SDS011;53444;45.822;16.092;2023-08-06T06:58:28;1.58;;;0.40;;
66585;SDS011;53444;45.822;16.092;2023-08-06T07:00:55;1.02;;;0.50;;
66585;SDS011;53444;45.822;16.092;2023-08-06T07:03:23;1.23;;;0.60;;
66585;SDS011;53444;45.822;16.092;2023-08-06T07:05:50;2.58;;;0.60;;
66585;SDS011;53444;45.822;16.092;2023-08-06T07:08:17;3.22;;;0.60;;
66585;SDS011;53444;45.822;16.092;2023-08-06T07:10:43;0.88;;;0.57;;
66585;SDS011;53444;45.822;16.092;2023-08-06T07:13:10;0.52;;;0.35;;
66585;SDS011;53444;45.822;16.092;2023-08-06T07:15:36;0.90;;;0.30;;
66585;SDS011;53444;45.822;16.092;2023-08-06T07:18:03;0.70;;;0.50;;
66585;SDS011;53444;45.822;16.092;2023-08-06T07:20:31;1.85;;;0.40;;
66585;SDS011;53444;45.822;16.092;2023-08-06T07:22:59;1.85;;;0.50;;
66585;SDS011;53444;45.822;16.092;2023-08-06T07:25:26;1.00;;;0.50;;
66585;SDS011;53444;45.822;16.092;2023-08-06T07:27:53;3.72;;;0.90;;
66585;SDS011;53444;45.822;16.092;2023-08-06T07:30:19;0.82;;;0.50;;
66585;SDS011;53444;45.822;16.092;2023-08-06T07:32:46;0.85;;;0.55;;
66585;SDS011;53444;45.822;16.092;2023-08-06T07:35:13;2.75;;;0.50;;
66585;SDS011;53444;45.822;16.092;2023-08-06T07:37:41;1.80;;;0.77;;
66585;SDS011;53444;45.822;16.092;2023-08-06T07:40:08;1.15;;;0.52;;
66585;SDS011;53444;45.822;16.092;2023-08-06T07:42:35;1.50;;;0.60;;
66585;SDS011;53444;45.822;16.092;2023-08-06T07:45:02;1.70;;;0.52;;
66585;SDS011;53444;45.822;16.092;2023-08-06T07:47:29;1.25;;;0.60;;
66585;SDS011;53444;45.822;16.092;2023-08-06T07:49:55;2.55;;;0.82;;
66585;SDS011;53444;45.822;16.092;2023-08-06T07:52:22;1.20;;;0.50;;
66585;SDS011;53444;45.822;16.092;2023-08-06T07:54:50;0.50;;;0.40;;
66585;SDS011;53444;45.822;16.092;2023-08-06T07:57:17;1.38;;;0.60;;
66585;SDS011;53444;45.822;16.092;2023-08-06T07:59:43;0.90;;;0.60;;
66585;SDS011;53444;45.822;16.092;2023-08-06T08:02:10;3.40;;;0.60;;
66585;SDS011;53444;45.822;16.092;2023-08-06T08:04:36;0.85;;;0.50;;
66585;SDS011;53444;45.822;16.092;2023-08-06T08:07:06;0.73;;;0.50;;
66585;SDS011;53444;45.822;16.092;2023-08-06T08:09:34;1.35;;;0.60;;
66585;SDS011;53444;45.822;16.092;2023-08-06T08:12:02;1.00;;;0.60;;
66585;SDS011;53444;45.822;16.092;2023-08-06T08:14:29;1.60;;;0.60;;
66585;SDS011;53444;45.822;16.092;2023-08-06T08:17:00;1.00;;;0.60;;
66585;SDS011;53444;45.822;16.092;2023-08-06T08:19:28;0.75;;;0.50;;
66585;SDS011;53444;45.822;16.092;2023-08-06T08:21:55;1.27;;;0.60;;
66585;SDS011;53444;45.822;16.092;2023-08-06T08:24:22;1.00;;;0.57;;
66585;SDS011;53444;45.822;16.092;2023-08-06T08:26:49;1.63;;;0.47;;
66585;SDS011;53444;45.822;16.092;2023-08-06T08:29:19;0.93;;;0.47;;
66585;SDS011;53444;45.822;16.092;2023-08-06T08:31:46;0.75;;;0.50;;
66585;SDS011;53444;45.822;16.092;2023-08-06T08:34:15;2.23;;;0.80;;
66585;SDS011;53444;45.822;16.092;2023-08-06T08:36:41;1.00;;;0.50;;
66585;SDS011;53444;45.822;16.092;2023-08-06T08:39:08;0.68;;;0.50;;
66585;SDS011;53444;45.822;16.092;2023-08-06T08:41:36;0.90;;;0.50;;
66585;SDS011;53444;45.822;16.092;2023-08-06T08:44:03;1.10;;;0.60;;
66585;SDS011;53444;45.822;16.092;2023-08-06T08:46:36;1.00;;;0.60;;
66585;SDS011;53444;45.822;16.092;2023-08-06T08:49:03;1.00;;;0.70;;
66585;SDS011;53444;45.822;16.092;2023-08-06T08:51:30;1.23;;;0.60;;
66585;SDS011;53444;45.822;16.092;2023-08-06T08:53:58;0.80;;;0.50;;
66585;SDS011;53444;45.822;16.092;2023-08-06T08:56:25;0.70;;;0.60;;
66585;SDS011;53444;45.822;16.092;2023-08-06T08:58:52;0.90;;;0.70;;
66585;SDS011;53444;45.822;16.092;2023-08-06T09:01:20;2.00;;;0.85;;
66585;SDS011;53444;45.822;16.092;2023-08-06T09:03:49;1.55;;;0.70;;
66585;SDS011;53444;45.822;16.092;2023-08-06T09:06:21;1.52;;;0.60;;
66585;SDS011;53444;45.822;16.092;2023-08-06T09:08:51;1.10;;;0.70;;
66585;SDS011;53444;45.822;16.092;2023-08-06T09:11:26;0.70;;;0.60;;
66585;SDS011;53444;45.822;16.092;2023-08-06T09:13:53;0.90;;;0.55;;
66585;SDS011;53444;45.822;16.092;2023-08-06T09:16:22;1.67;;;0.45;;
66585;SDS011;53444;45.822;16.092;2023-08-06T09:18:51;1.30;;;0.60;;
66585;SDS011;53444;45.822;16.092;2023-08-06T09:21:17;0.80;;;0.50;;
66585;SDS011;53444;45.822;16.092;2023-08-06T09:23:44;1.00;;;0.70;;
66585;SDS011;53444;45.822;16.092;2023-08-06T09:26:11;1.20;;;0.52;;
66585;SDS011;53444;45.822;16.092;2023-08-06T09:28:38;1.23;;;0.50;;
66585;SDS011;53444;45.822;16.092;2023-08-06T09:31:07;0.80;;;0.50;;
66585;SDS011;53444;45.822;16.092;2023-08-06T09:33:35;1.00;;;0.60;;
66585;SDS011;53444;45.822;16.092;2023-08-06T09:36:08;2.00;;;0.60;;
66585;SDS011;53444;45.822;16.092;2023-08-06T09:38:37;1.23;;;0.93;;
66585;SDS011;53444;45.822;16.092;2023-08-06T09:41:05;2.50;;;0.93;;
66585;SDS011;53444;45.822;16.092;2023-08-06T09:43:38;2.45;;;1.00;;
66585;SDS011;53444;45.822;16.092;2023-08-06T09:46:10;1.65;;;0.70;;
66585;SDS011;53444;45.822;16.092;2023-08-06T09:48:38;2.10;;;1.08;;
66585;SDS011;53444;45.822;16.092;2023-08-06T09:51:05;1.27;;;0.70;;
66585;SDS011;53444;45.822;16.092;2023-08-06T09:53:35;1.83;;;1.00;;
66585;SDS011;53444;45.822;16.092;2023-08-06T09:56:03;2.05;;;1.02;;
66585;SDS011;53444;45.822;16.092;2023-08-06T09:58:30;2.65;;;1.10;;
66585;SDS011;53444;45.822;16.092;2023-08-06T10:00:58;1.13;;;0.80;;
66585;SDS011;53444;45.822;16.092;2023-08-06T10:03:25;2.50;;;0.90;;
66585;SDS011;53444;45.822;16.092;2023-08-06T10:05:54;1.67;;;1.08;;
66585;SDS011;53444;45.822;16.092;2023-08-06T10:08:23;3.20;;;1.15;;
66585;SDS011;53444;45.822;16.092;2023-08-06T10:10:49;1.40;;;0.90;;
66585;SDS011;53444;45.822;16.092;2023-08-06T10:13:16;1.90;;;1.00;;
66585;SDS011;53444;45.822;16.092;2023-08-06T10:15:45;1.90;;;1.10;;
66585;SDS011;53444;45.822;16.092;2023-08-06T10:18:12;2.25;;;0.80;;
66585;SDS011;53444;45.822;16.092;2023-08-06T10:20:43;1.83;;;1.13;;
66585;SDS011;53444;45.822;16.092;2023-08-06T10:23:09;2.25;;;0.70;;
66585;SDS011;53444;45.822;16.092;2023-08-06T10:25:41;1.20;;;0.80;;
66585;SDS011;53444;45.822;16.092;2023-08-06T10:28:08;1.13;;;0.82;;
66585;SDS011;53444;45.822;16.092;2023-08-06T10:30:41;1.92;;;1.10;;
66585;SDS011;53444;45.822;16.092;2023-08-06T10:33:09;1.95;;;0.98;;
66585;SDS011;53444;45.822;16.092;2023-08-06T10:35:36;1.95;;;0.90;;
66585;SDS011;53444;45.822;16.092;2023-08-06T10:38:03;1.17;;;0.82;;
66585;SDS011;53444;45.822;16.092;2023-08-06T10:40:31;1.23;;;0.70;;
66585;SDS011;53444;45.822;16.092;2023-08-06T10:43:00;1.65;;;0.68;;
66585;SDS011;53444;45.822;16.092;2023-08-06T10:45:27;1.10;;;0.77;;
66585;SDS011;53444;45.822;16.092;2023-08-06T10:47:55;2.40;;;1.08;;
66585;SDS011;53444;45.822;16.092;2023-08-06T10:50:22;1.30;;;0.90;;
66585;SDS011;53444;45.822;16.092;2023-08-06T10:52:50;2.67;;;1.10;;
66585;SDS011;53444;45.822;16.092;2023-08-06T10:55:26;2.92;;;1.20;;
66585;SDS011;53444;45.822;16.092;2023-08-06T10:57:55;4.63;;;1.20;;
66585;SDS011;53444;45.822;16.092;2023-08-06T11:00:23;2.05;;;0.80;;
66585;SDS011;53444;45.822;16.092;2023-08-06T11:02:51;1.47;;;1.00;;
66585;SDS011;53444;45.822;16.092;2023-08-06T11:05:18;1.77;;;0.90;;
66585;SDS011;53444;45.822;16.092;2023-08-06T11:07:45;1.63;;;1.10;;
66585;SDS011;53444;45.822;16.092;2023-08-06T11:10:13;2.45;;;1.27;;
66585;SDS011;53444;45.822;16.092;2023-08-06T11:12:40;2.17;;;1.00;;
66585;SDS011;53444;45.822;16.092;2023-08-06T11:15:07;2.13;;;0.90;;
66585;SDS011;53444;45.822;16.092;2023-08-06T11:17:36;2.20;;;1.02;;
66585;SDS011;53444;45.822;16.092;2023-08-06T11:20:03;2.60;;;0.95;;
66585;SDS011;53444;45.822;16.092;2023-08-06T11:22:31;2.40;;;1.10;;
66585;SDS011;53444;45.822;16.092;2023-08-06T11:24:58;3.20;;;0.80;;
66585;SDS011;53444;45.822;16.092;2023-08-06T11:27:26;1.20;;;0.70;;
66585;SDS011;53444;45.822;16.092;2023-08-06T11:29:54;1.08;;;0.65;;
66585;SDS011;53444;45.822;16.092;2023-08-06T11:32:20;1.05;;;0.50;;
66585;SDS011;53444;45.822;16.092;2023-08-06T11:34:49;1.95;;;0.90;;
66585;SDS011;53444;45.822;16.092;2023-08-06T11:37:15;1.10;;;0.77;;
66585;SDS011;53444;45.822;16.092;2023-08-06T11:39:45;1.75;;;0.70;;
66585;SDS011;53444;45.822;16.092;2023-08-06T11:42:13;2.53;;;1.10;;
66585;SDS011;53444;45.822;16.092;2023-08-06T11:44:40;1.20;;;0.63;;
66585;SDS011;53444;45.822;16.092;2023-08-06T11:47:11;1.35;;;0.70;;
66585;SDS011;53444;45.822;16.092;2023-08-06T11:49:39;2.92;;;0.80;;
66585;SDS011;53444;45.822;16.092;2023-08-06T11:52:20;1.10;;;0.70;;
66585;SDS011;53444;45.822;16.092;2023-08-06T11:54:59;3.42;;;0.85;;
66585;SDS011;53444;45.822;16.092;2023-08-06T11:57:28;0.82;;;0.63;;
66585;SDS011;53444;45.822;16.092;2023-08-06T11:59:57;0.90;;;0.70;;
66585;SDS011;53444;45.822;16.092;2023-08-06T12:02:27;2.45;;;0.70;;
66585;SDS011;53444;45.822;16.092;2023-08-06T12:05:00;4.53;;;1.30;;
66585;SDS011;53444;45.822;16.092;2023-08-06T12:07:29;2.28;;;0.95;;
66585;SDS011;53444;45.822;16.092;2023-08-06T12:09:56;2.75;;;1.17;;
66585;SDS011;53444;45.822;16.092;2023-08-06T12:12:23;1.45;;;0.75;;
66585;SDS011;53444;45.822;16.092;2023-08-06T12:14:50;1.10;;;0.85;;
66585;SDS011;53444;45.822;16.092;2023-08-06T12:17:17;2.00;;;0.70;;
66585;SDS011;53444;45.822;16.092;2023-08-06T12:19:44;1.20;;;0.70;;
66585;SDS011;53444;45.822;16.092;2023-08-06T12:22:12;1.35;;;0.68;;
66585;SDS011;53444;45.822;16.092;2023-08-06T12:24:40;1.90;;;0.73;;
66585;SDS011;53444;45.822;16.092;2023-08-06T12:27:07;1.58;;;0.70;;
66585;SDS011;53444;45.822;16.092;2023-08-06T12:29:34;0.73;;;0.50;;
66585;SDS011;53444;45.822;16.092;2023-08-06T12:32:01;1.25;;;0.75;;
66585;SDS011;53444;45.822;16.092;2023-08-06T12:34:28;1.00;;;0.60;;
66585;SDS011;53444;45.822;16.092;2023-08-06T12:36:54;1.00;;;0.70;;
66585;SDS011;53444;45.822;16.092;2023-08-06T12:39:21;0.70;;;0.60;;
66585;SDS011;53444;45.822;16.092;2023-08-06T12:41:49;0.80;;;0.60;;
66585;SDS011;53444;45.822;16.092;2023-08-06T12:44:16;0.82;;;0.63;;
66585;SDS011;53444;45.822;16.092;2023-08-06T12:46:43;0.75;;;0.52;;
66585;SDS011;53444;45.822;16.092;2023-08-06T12:49:09;1.50;;;0.65;;
66585;SDS011;53444;45.822;16.092;2023-08-06T12:51:36;0.95;;;0.60;;
66585;SDS011;53444;45.822;16.092;2023-08-06T12:54:03;0.70;;;0.50;;
66585;SDS011;53444;45.822;16.092;2023-08-06T12:56:32;2.75;;;0.70;;
66585;SDS011;53444;45.822;16.092;2023-08-06T12:59:00;1.23;;;0.70;;
66585;SDS011;53444;45.822;16.092;2023-08-06T13:01:26;1.13;;;0.70;;
66585;SDS011;53444;45.822;16.092;2023-08-06T13:03:53;1.48;;;0.60;;
66585;SDS011;53444;45.822;16.092;2023-08-06T13:06:20;0.60;;;0.60;;
66585;SDS011;53444;45.822;16.092;2023-08-06T13:08:46;0.88;;;0.68;;
66585;SDS011;53444;45.822;16.092;2023-08-06T13:11:13;0.40;;;0.40;;
66585;SDS011;53444;45.822;16.092;2023-08-06T13:13:39;1.20;;;0.50;;
66585;SDS011;53444;45.822;16.092;2023-08-06T13:16:10;0.80;;;0.50;;
66585;SDS011;53444;45.822;16.092;2023-08-06T13:18:37;0.67;;;0.50;;
66585;SDS011;53444;45.822;16.092;2023-08-06T13:21:03;0.52;;;0.40;;
66585;SDS011;53444;45.822;16.092;2023-08-06T13:23:30;1.23;;;0.40;;
66585;SDS011;53444;45.822;16.092;2023-08-06T13:25:57;0.47;;;0.40;;
66585;SDS011;53444;45.822;16.092;2023-08-06T13:28:25;0.75;;;0.50;;
66585;SDS011;53444;45.822;16.092;2023-08-06T13:30:51;0.63;;;0.50;;
66585;SDS011;53444;45.822;16.092;2023-08-06T13:33:19;1.90;;;0.50;;
66585;SDS011;53444;45.822;16.092;2023-08-06T13:35:46;0.57;;;0.40;;
66585;SDS011;53444;45.822;16.092;2023-08-06T13:38:13;0.57;;;0.52;;
66585;SDS011;53444;45.822;16.092;2023-08-06T13:40:39;1.52;;;0.57;;
66585;SDS011;53444;45.822;16.092;2023-08-06T13:43:06;0.70;;;0.57;;
66585;SDS011;53444;45.822;16.092;2023-08-06T13:45:33;0.60;;;0.43;;
66585;SDS011;53444;45.822;16.092;2023-08-06T13:48:00;0.63;;;0.40;;
66585;SDS011;53444;45.822;16.092;2023-08-06T13:50:28;0.60;;;0.50;;
66585;SDS011;53444;45.822;16.092;2023-08-06T13:52:55;0.70;;;0.68;;
66585;SDS011;53444;45.822;16.092;2023-08-06T13:55:22;0.50;;;0.40;;
66585;SDS011;53444;45.822;16.092;2023-08-06T13:57:48;0.80;;;0.50;;
66585;SDS011;53444;45.822;16.092;2023-08-06T14:00:16;0.80;;;0.60;;
66585;SDS011;53444;45.822;16.092;2023-08-06T14:02:42;0.80;;;0.57;;
66585;SDS011;53444;45.822;16.092;2023-08-06T14:05:10;0.98;;;0.80;;
66585;SDS011;53444;45.822;16.092;2023-08-06T14:07:38;0.70;;;0.53;;
66585;SDS011;53444;45.822;16.092;2023-08-06T14:10:05;2.00;;;0.90;;
66585;SDS011;53444;45.822;16.092;2023-08-06T14:12:34;0.77;;;0.68;;
66585;SDS011;53444;45.822;16.092;2023-08-06T14:15:01;0.50;;;0.30;;
66585;SDS011;53444;45.822;16.092;2023-08-06T14:17:28;0.88;;;0.50;;
66585;SDS011;53444;45.822;16.092;2023-08-06T14:19:55;0.93;;;0.40;;
66585;SDS011;53444;45.822;16.092;2023-08-06T14:22:21;1.02;;;0.50;;
66585;SDS011;53444;45.822;16.092;2023-08-06T14:24:49;0.60;;;0.50;;
66585;SDS011;53444;45.822;16.092;2023-08-06T14:27:16;0.75;;;0.50;;
66585;SDS011;53444;45.822;16.092;2023-08-06T14:29:43;0.98;;;0.80;;
66585;SDS011;53444;45.822;16.092;2023-08-06T14:32:09;1.27;;;0.60;;
66585;SDS011;53444;45.822;16.092;2023-08-06T14:34:36;2.00;;;0.80;;